Time;durP1;ratioP1;P1;durP2;ratioP2;P2;SDS_P1;SDS_P2;PMS_P1;PMS_P2;Temp;Humidity;BMP_temperature;BMP_pressure;BME280_temperature;BME280_humidity;BME280_pressure;Samples;Min_cycle;Max_cycle;Signal;HPM_P1;HPM_P2
2023/04/27 00:00:13;;;;;;;25.00;13.50;;;;;;;2.67;66.80;97272.42;108727;1253;95845;-71
2023/04/27 00:03:04;;;;;;;21.00;11.80;;;;;;;2.64;66.79;97273.33;108471;1252;96042;-72
2023/04/27 00:05:35;;;;;;;23.00;12.20;;;;;;;2.58;66.84;97273.60;108801;1253;103596;-73
2023/04/27 00:08:02;;;;;;;24.40;13.20;;;;;;;2.51;66.98;97270.02;108778;1252;101263;-73
2023/04/27 00:10:29;;;;;;;23.80;12.50;;;;;;;2.47;66.98;97268.84;108793;1252;95614;-72
2023/04/27 00:12:55;;;;;;;22.20;12.20;;;;;;;2.43;67.03;97269.69;108439;1252;95717;-71
2023/04/27 00:15:22;;;;;;;22.20;12.60;;;;;;;2.38;67.04;97271.48;108561;1253;95668;-72
2023/04/27 00:17:49;;;;;;;25.00;13.20;;;;;;;2.34;67.08;97271.54;108422;1253;95813;-74
2023/04/27 00:20:16;;;;;;;26.40;13.20;;;;;;;2.30;67.13;97273.07;108442;1252;100016;-73
2023/04/27 00:22:43;;;;;;;23.90;12.90;;;;;;;2.27;67.09;97277.49;108761;1253;95744;-72
2023/04/27 00:25:10;;;;;;;26.60;13.10;;;;;;;2.24;67.19;97276.51;108783;1253;98090;-72
2023/04/27 00:27:37;;;;;;;24.00;12.60;;;;;;;2.22;67.21;97271.94;108781;1253;95629;-73
2023/04/27 00:30:05;;;;;;;25.20;13.30;;;;;;;2.18;67.22;97273.55;108775;1253;96138;-72
2023/04/27 00:32:31;;;;;;;22.00;11.60;;;;;;;2.15;67.24;97273.40;108725;1253;97114;-73
2023/04/27 00:34:58;;;;;;;24.00;11.70;;;;;;;2.12;67.36;97270.89;108713;1252;95571;-74
2023/04/27 00:37:25;;;;;;;23.50;11.50;;;;;;;2.09;67.38;97273.96;108896;1252;96093;-73
2023/04/27 00:39:51;;;;;;;23.10;11.40;;;;;;;2.04;67.38;97273.83;108760;1253;101262;-72
2023/04/27 00:42:18;;;;;;;20.80;10.80;;;;;;;1.99;67.34;97273.86;108752;1252;96009;-72
2023/04/27 00:44:46;;;;;;;19.20;11.00;;;;;;;1.90;67.39;97274.34;108759;1252;95755;-73
2023/04/27 00:47:13;;;;;;;18.50;10.30;;;;;;;1.83;67.56;97278.27;108463;1252;95775;-73
2023/04/27 00:49:40;;;;;;;18.20;10.70;;;;;;;1.79;67.68;97274.86;108663;1252;95655;-74
2023/04/27 00:52:07;;;;;;;19.00;10.90;;;;;;;1.76;67.72;97274.87;108737;1252;95872;-73
2023/04/27 00:54:34;;;;;;;20.50;11.00;;;;;;;1.71;67.74;97275.21;108315;1253;95699;-72
2023/04/27 00:57:02;;;;;;;21.00;11.10;;;;;;;1.66;67.89;97276.20;108818;1253;95524;-72
2023/04/27 00:59:29;;;;;;;21.30;11.30;;;;;;;1.60;67.92;97276.15;108773;1253;103269;-72
2023/04/27 01:01:56;;;;;;;15.40;9.90;;;;;;;1.57;68.03;97275.61;108751;1253;95653;-74
2023/04/27 01:04:23;;;;;;;19.80;10.70;;;;;;;1.55;68.03;97277.41;108739;1253;95874;-72
2023/04/27 01:06:49;;;;;;;18.60;10.00;;;;;;;1.48;67.99;97276.38;108690;1253;95605;-74
2023/04/27 01:09:18;;;;;;;30.80;17.00;;;;;;;1.43;68.08;97282.49;108909;1252;95707;-72
2023/04/27 01:11:46;;;;;;;22.80;14.40;;;;;;;1.43;68.23;97284.46;108792;1253;101396;-72
2023/04/27 01:14:12;;;;;;;26.70;14.60;;;;;;;1.44;68.29;97284.42;108743;1253;100269;-73
2023/04/27 01:16:39;;;;;;;45.60;29.10;;;;;;;1.42;68.28;97286.70;108762;1252;95806;-73
2023/04/27 01:19:07;;;;;;;38.00;23.80;;;;;;;1.42;68.31;97288.84;108757;1252;95617;-73
2023/04/27 01:21:34;;;;;;;31.10;19.90;;;;;;;1.40;68.34;97284.80;108762;1253;95855;-72
2023/04/27 01:24:01;;;;;;;38.00;24.50;;;;;;;1.40;68.40;97289.98;108762;1253;95771;-72
2023/04/27 01:26:27;;;;;;;52.90;35.70;;;;;;;1.39;68.55;97289.48;108774;1252;96431;-72
2023/04/27 01:28:54;;;;;;;53.60;35.20;;;;;;;1.41;68.63;97295.38;108841;1253;95695;-73
2023/04/27 01:31:20;;;;;;;43.10;28.60;;;;;;;1.41;68.69;97295.12;108447;1252;103837;-72
2023/04/27 01:33:47;;;;;;;34.00;22.10;;;;;;;1.42;68.78;97296.09;108798;1253;95936;-72
2023/04/27 01:36:14;;;;;;;26.10;15.20;;;;;;;1.44;68.81;97297.20;108753;1252;95630;-74
2023/04/27 01:38:41;;;;;;;24.20;14.30;;;;;;;1.47;68.93;97302.70;108710;1253;95778;-72
2023/04/27 01:41:08;;;;;;;23.70;12.80;;;;;;;1.48;69.04;97303.30;108781;1252;96498;-74
2023/04/27 01:43:36;;;;;;;23.80;12.50;;;;;;;1.51;69.16;97298.80;108746;1252;101366;-72
2023/04/27 01:46:11;;;;;;;22.70;12.40;;;;;;;1.52;69.16;97299.66;108739;1252;98998;-74
2023/04/27 01:48:39;;;;;;;25.60;13.70;;;;;;;1.54;69.25;97300.38;108702;1252;95765;-72
2023/04/27 01:51:06;;;;;;;27.90;15.70;;;;;;;1.56;69.28;97302.89;108737;1253;96037;-73
2023/04/27 01:53:33;;;;;;;24.90;13.30;;;;;;;1.56;69.37;97300.70;108770;1254;95689;-72
2023/04/27 01:56:00;;;;;;;26.40;14.40;;;;;;;1.58;69.38;97297.09;108723;1253;95800;-74
2023/04/27 01:58:27;;;;;;;23.50;13.00;;;;;;;1.60;69.51;97292.36;108767;1252;95617;-74
2023/04/27 02:00:54;;;;;;;23.40;12.80;;;;;;;1.63;69.48;97298.89;108347;1252;95697;-72
2023/04/27 02:03:21;;;;;;;25.00;12.80;;;;;;;1.64;69.44;97296.51;108351;1253;95968;-71
2023/04/27 02:05:47;;;;;;;19.90;11.20;;;;;;;1.60;69.50;97298.55;108801;1253;95645;-73
2023/04/27 02:08:14;;;;;;;22.30;11.20;;;;;;;1.61;69.53;97305.00;108785;1252;100008;-72
2023/04/27 02:10:41;;;;;;;21.10;12.10;;;;;;;1.63;69.66;97302.84;108696;1253;95630;-72
2023/04/27 02:13:09;;;;;;;18.50;10.90;;;;;;;1.65;69.65;97299.30;108371;1254;95692;-73
2023/04/27 02:15:35;;;;;;;23.40;12.50;;;;;;;1.65;69.80;97299.80;108363;1253;95710;-72
2023/04/27 02:18:03;;;;;;;20.50;11.10;;;;;;;1.67;69.74;97303.45;108786;1252;95680;-73
2023/04/27 02:20:31;;;;;;;26.50;13.20;;;;;;;1.68;69.72;97304.12;108734;1252;95598;-72
2023/04/27 02:22:58;;;;;;;25.60;12.90;;;;;;;1.68;69.71;97301.73;108733;1253;95882;-72
2023/04/27 02:25:25;;;;;;;23.40;13.00;;;;;;;1.69;69.71;97304.43;108391;1253;96136;-73
2023/04/27 02:27:52;;;;;;;26.10;11.70;;;;;;;1.68;69.85;97302.97;108818;1252;95829;-72
2023/04/27 02:30:19;;;;;;;22.20;11.70;;;;;;;1.66;69.77;97305.86;108817;1253;95778;-73
2023/04/27 02:32:46;;;;;;;19.50;12.40;;;;;;;1.63;69.89;97312.93;108825;1252;95645;-72
2023/04/27 02:35:13;;;;;;;19.20;11.70;;;;;;;1.60;69.97;97310.20;108823;1252;95630;-73
2023/04/27 02:37:39;;;;;;;23.80;12.00;;;;;;;1.60;69.97;97308.61;108740;1254;95810;-72
2023/04/27 02:40:07;;;;;;;20.20;11.80;;;;;;;1.60;70.02;97304.75;108724;1253;95840;-72
2023/04/27 02:42:34;;;;;;;22.10;11.70;;;;;;;1.56;70.18;97310.59;108722;1252;96290;-72
2023/04/27 02:45:01;;;;;;;20.10;13.30;;;;;;;1.57;70.30;97312.33;108413;1252;95733;-74
2023/04/27 02:47:27;;;;;;;29.10;15.10;;;;;;;1.58;70.42;97313.61;108806;1252;95618;-73
2023/04/27 02:49:54;;;;;;;28.30;15.30;;;;;;;1.56;70.47;97317.91;108901;1253;96197;-72
2023/04/27 02:52:21;;;;;;;35.70;16.40;;;;;;;1.53;70.51;97315.38;108440;1252;100047;-72
2023/04/27 02:54:48;;;;;;;29.10;15.60;;;;;;;1.54;70.57;97313.21;108790;1252;95833;-73
2023/04/27 02:57:15;;;;;;;29.70;14.90;;;;;;;1.56;70.65;97313.89;108772;1253;95956;-74
2023/04/27 02:59:41;;;;;;;26.30;15.40;;;;;;;1.59;70.66;97313.89;108815;1253;95688;-73
2023/04/27 03:02:08;;;;;;;21.90;13.40;;;;;;;1.62;70.78;97315.52;108788;1252;95606;-73
2023/04/27 03:04:37;;;;;;;23.00;14.20;;;;;;;1.64;70.77;97313.54;108854;1253;95594;-72
2023/04/27 03:07:03;;;;;;;23.70;13.20;;;;;;;1.67;70.79;97313.96;108779;1252;97124;-73
2023/04/27 03:09:30;;;;;;;33.80;14.70;;;;;;;1.68;70.84;97312.64;108786;1254;95765;-72
2023/04/27 03:11:57;;;;;;;34.80;15.40;;;;;;;1.68;70.85;97316.50;108429;1253;95913;-73
2023/04/27 03:14:23;;;;;;;36.10;15.30;;;;;;;1.70;70.87;97312.36;108766;1253;95965;-72
2023/04/27 03:16:50;;;;;;;34.80;14.60;;;;;;;1.72;70.83;97314.40;108872;1253;95682;-73
2023/04/27 03:19:17;;;;;;;36.40;16.40;;;;;;;1.74;70.83;97315.68;108303;1253;103511;-72
2023/04/27 03:21:44;;;;;;;29.80;14.10;;;;;;;1.76;70.94;97317.92;108819;1253;96057;-72
2023/04/27 03:24:10;;;;;;;30.80;14.70;;;;;;;1.77;70.99;97317.80;108822;1252;95667;-73
2023/04/27 03:26:37;;;;;;;34.40;15.20;;;;;;;1.76;71.00;97316.13;108756;1252;95889;-72
2023/04/27 03:29:03;;;;;;;27.70;13.80;;;;;;;1.76;70.98;97317.59;108873;1253;95983;-72
2023/04/27 03:31:30;;;;;;;33.90;15.90;;;;;;;1.76;71.03;97317.45;108797;1252;101379;-72
2023/04/27 03:33:57;;;;;;;28.00;14.40;;;;;;;1.76;71.06;97318.83;108384;1253;95954;-73
2023/04/27 03:36:24;;;;;;;32.10;14.80;;;;;;;1.75;71.14;97319.98;108753;1256;95821;-72
2023/04/27 03:38:50;;;;;;;31.90;15.40;;;;;;;1.74;71.19;97319.61;108824;1252;95694;-73
2023/04/27 03:41:17;;;;;;;35.50;15.90;;;;;;;1.74;71.20;97327.86;108876;1253;95991;-73
2023/04/27 03:43:44;;;;;;;29.90;14.80;;;;;;;1.73;71.18;97331.02;108805;1253;99993;-72
2023/04/27 03:46:10;;;;;;;25.90;14.70;;;;;;;1.70;71.28;97331.49;108829;1253;95676;-72
2023/04/27 03:48:37;;;;;;;27.30;14.60;;;;;;;1.68;71.26;97336.39;108806;1252;95631;-73
2023/04/27 03:51:04;;;;;;;30.20;14.20;;;;;;;1.67;71.30;97338.64;108814;1254;95570;-72
2023/04/27 03:53:30;;;;;;;31.00;14.90;;;;;;;1.66;71.31;97343.66;108839;1253;95709;-72
2023/04/27 03:55:57;;;;;;;36.70;17.30;;;;;;;1.65;71.32;97343.41;108732;1254;95575;-73
2023/04/27 03:58:24;;;;;;;38.40;20.10;;;;;;;1.65;71.37;97342.48;108837;1253;95623;-72
2023/04/27 04:00:51;;;;;;;40.90;20.90;;;;;;;1.66;71.42;97342.42;108784;1254;95642;-73
2023/04/27 04:03:17;;;;;;;43.00;20.90;;;;;;;1.65;71.47;97344.61;108783;1252;95676;-73
2023/04/27 04:05:45;;;;;;;45.30;19.70;;;;;;;1.65;71.47;97348.42;108818;1254;95706;-73
2023/04/27 04:08:13;;;;;;;38.30;18.60;;;;;;;1.64;71.38;97349.92;108818;1254;96153;-73
2023/04/27 04:10:40;;;;;;;44.10;19.90;;;;;;;1.63;71.54;97353.38;108732;1253;103813;-73
2023/04/27 04:13:06;;;;;;;46.80;22.70;;;;;;;1.62;71.57;97357.49;108797;1252;95953;-73
2023/04/27 04:15:33;;;;;;;42.40;20.70;;;;;;;1.62;71.61;97358.41;108718;1253;95595;-72
2023/04/27 04:18:00;;;;;;;43.40;21.20;;;;;;;1.65;71.83;97354.95;108751;1252;95972;-74
2023/04/27 04:20:27;;;;;;;36.50;19.10;;;;;;;1.67;71.87;97361.30;108817;1253;96047;-72
2023/04/27 04:22:53;;;;;;;39.10;21.60;;;;;;;1.68;71.91;97365.15;108836;1253;101268;-72
2023/04/27 04:25:20;;;;;;;41.50;20.60;;;;;;;1.68;72.07;97362.63;108421;1253;95879;-73
2023/04/27 04:27:47;;;;;;;42.60;22.40;;;;;;;1.69;72.12;97363.88;108789;1253;95647;-72
2023/04/27 04:30:14;;;;;;;47.10;23.60;;;;;;;1.74;72.20;97366.02;108770;1253;95644;-73
2023/04/27 04:32:41;;;;;;;40.60;20.30;;;;;;;1.79;72.21;97366.95;108793;1254;96045;-72
2023/04/27 04:35:08;;;;;;;45.70;23.50;;;;;;;1.84;72.10;97368.82;108849;1252;95676;-72
2023/04/27 04:37:35;;;;;;;50.50;24.70;;;;;;;1.88;72.19;97373.70;108801;1252;95619;-74
2023/04/27 04:40:08;;;;;;;56.30;27.70;;;;;;;1.94;72.17;97375.77;108849;1253;95856;-74
2023/04/27 04:42:38;;;;;;;53.60;26.80;;;;;;;1.99;72.09;97381.23;108822;1254;103679;-73
2023/04/27 04:45:06;;;;;;;49.60;25.10;;;;;;;2.02;72.10;97386.95;108879;1253;101289;-72
2023/04/27 04:47:33;;;;;;;41.70;19.90;;;;;;;2.05;72.10;97382.89;108433;1253;99910;-73
2023/04/27 04:50:00;;;;;;;34.20;18.10;;;;;;;2.09;72.01;97390.13;108795;1253;95577;-73
2023/04/27 04:52:27;;;;;;;35.70;17.40;;;;;;;2.13;72.07;97390.79;108808;1252;95676;-73
2023/04/27 04:54:53;;;;;;;33.50;17.00;;;;;;;2.14;71.87;97388.86;108822;1254;95600;-73
2023/04/27 04:57:21;;;;;;;33.70;16.20;;;;;;;2.16;71.96;97388.86;108816;1252;95635;-73
2023/04/27 04:59:47;;;;;;;30.00;17.00;;;;;;;2.19;71.82;97388.20;108820;1254;95817;-72
2023/04/27 05:02:14;;;;;;;31.20;17.10;;;;;;;2.17;71.87;97389.45;108885;1252;95604;-72
2023/04/27 05:04:41;;;;;;;32.50;16.70;;;;;;;2.19;71.87;97397.20;108809;1253;103498;-73
2023/04/27 05:07:07;;;;;;;32.00;18.20;;;;;;;2.21;71.84;97394.94;108837;1253;95624;-73
2023/04/27 05:09:34;;;;;;;33.20;18.70;;;;;;;2.22;71.90;97397.65;108737;1252;95856;-73
2023/04/27 05:12:01;;;;;;;36.30;18.50;;;;;;;2.23;71.93;97400.19;108766;1254;96516;-73
2023/04/27 05:14:30;;;;;;;36.30;19.90;;;;;;;2.25;72.06;97400.60;108872;1253;95884;-73
2023/04/27 05:16:57;;;;;;;34.30;18.10;;;;;;;2.26;72.06;97400.80;108452;1252;101406;-74
2023/04/27 05:19:24;;;;;;;40.10;19.70;;;;;;;2.26;72.04;97395.98;108803;1252;95539;-72
2023/04/27 05:21:51;;;;;;;33.80;18.10;;;;;;;2.28;72.03;97402.19;108766;1254;96233;-72
2023/04/27 05:24:17;;;;;;;30.50;18.00;;;;;;;2.30;72.04;97400.38;108799;1253;95653;-72
2023/04/27 05:26:44;;;;;;;35.50;19.50;;;;;;;2.31;72.12;97400.75;108583;1254;95663;-73
2023/04/27 05:29:11;;;;;;;35.10;20.00;;;;;;;2.33;72.06;97402.91;108815;1253;99490;-72
2023/04/27 05:31:38;;;;;;;38.60;20.90;;;;;;;2.35;72.01;97404.66;108835;1252;95587;-73
2023/04/27 05:34:04;;;;;;;44.10;23.30;;;;;;;2.39;72.08;97406.33;108760;1253;96427;-72
2023/04/27 05:36:31;;;;;;;50.90;23.70;;;;;;;2.44;72.21;97406.80;108784;1254;95788;-73
2023/04/27 05:38:58;;;;;;;40.70;21.40;;;;;;;2.50;72.16;97407.97;108841;1253;95640;-72
2023/04/27 05:41:24;;;;;;;37.20;19.00;;;;;;;2.57;72.18;97407.11;108781;1253;95819;-73
2023/04/27 05:43:52;;;;;;;36.50;19.10;;;;;;;2.64;72.03;97412.06;108492;1252;95830;-72
2023/04/27 05:46:19;;;;;;;38.80;18.80;;;;;;;2.71;72.08;97412.70;108820;1252;95725;-73
2023/04/27 05:48:46;;;;;;;37.90;19.50;;;;;;;2.79;71.88;97409.15;108788;1253;95682;-74
2023/04/27 05:51:13;;;;;;;38.40;19.30;;;;;;;2.89;71.94;97407.07;108799;1255;95687;-73
2023/04/27 05:53:40;;;;;;;39.30;17.90;;;;;;;2.98;71.82;97408.94;108332;1254;95702;-73
2023/04/27 05:56:07;;;;;;;33.30;17.00;;;;;;;3.06;71.69;97412.73;108781;1254;95697;-75
2023/04/27 05:58:34;;;;;;;30.90;14.60;;;;;;;3.13;71.68;97413.54;108889;1253;95990;-73
2023/04/27 06:01:01;;;;;;;25.40;12.10;;;;;;;3.23;71.55;97418.17;108775;1253;99301;-72
2023/04/27 06:03:29;;;;;;;25.80;11.50;;;;;;;3.34;71.20;97420.88;108779;1253;95598;-73
2023/04/27 06:05:57;;;;;;;20.30;10.10;;;;;;;3.44;70.83;97424.95;108373;1252;96137;-73
2023/04/27 06:08:24;;;;;;;19.60;9.50;;;;;;;3.53;70.58;97422.69;108430;1253;112267;-74
2023/04/27 06:10:51;;;;;;;21.10;9.60;;;;;;;3.62;70.53;97424.21;108740;1254;95842;-73
2023/04/27 06:13:18;;;;;;;17.70;9.00;;;;;;;3.71;70.18;97423.17;108781;1254;96914;-73
2023/04/27 06:15:46;;;;;;;21.20;9.40;;;;;;;3.83;70.08;97419.90;108414;1254;95779;-73
2023/04/27 06:18:13;;;;;;;17.40;8.90;;;;;;;3.98;70.15;97420.38;108636;1252;95642;-73
2023/04/27 06:20:39;;;;;;;15.90;8.50;;;;;;;4.12;69.92;97418.84;108783;1252;95655;-73
2023/04/27 06:23:06;;;;;;;22.40;9.20;;;;;;;4.25;69.93;97416.71;108883;1252;95676;-73
2023/04/27 06:25:34;;;;;;;17.90;9.40;;;;;;;4.39;69.68;97412.75;108342;1254;95711;-73
2023/04/27 06:28:01;;;;;;;25.30;10.20;;;;;;;4.55;69.41;97414.54;108797;1252;95964;-73
2023/04/27 06:30:27;;;;;;;17.10;9.20;;;;;;;4.67;69.10;97417.39;108867;1254;95636;-74
2023/04/27 06:32:54;;;;;;;18.80;8.70;;;;;;;4.78;68.89;97414.56;108410;1253;96072;-73
2023/04/27 06:35:21;;;;;;;19.10;9.10;;;;;;;4.88;68.31;97415.85;108772;1254;96105;-74
2023/04/27 06:37:48;;;;;;;16.30;8.60;;;;;;;4.97;67.85;97415.09;108832;1252;95585;-73
2023/04/27 06:40:15;;;;;;;17.80;9.10;;;;;;;5.07;67.72;97412.92;108846;1253;112242;-73
2023/04/27 06:42:41;;;;;;;14.30;8.10;;;;;;;5.21;67.45;97418.11;108789;1254;95720;-73
2023/04/27 06:45:08;;;;;;;19.40;9.50;;;;;;;5.35;67.01;97420.06;108409;1253;95670;-74
2023/04/27 06:47:35;;;;;;;17.00;7.70;;;;;;;5.48;66.59;97417.30;108826;1252;95682;-74
2023/04/27 06:50:02;;;;;;;15.70;7.50;;;;;;;5.61;66.38;97418.60;108848;1253;95710;-73
2023/04/27 06:52:32;;;;;;;17.80;7.50;;;;;;;5.74;66.22;97417.09;108795;1253;95629;-73
2023/04/27 06:54:59;;;;;;;12.70;6.90;;;;;;;5.90;66.13;97414.70;108819;1256;95658;-73
2023/04/27 06:57:25;;;;;;;14.40;7.10;;;;;;;6.04;66.06;97416.30;108455;1253;96066;-74
2023/04/27 06:59:52;;;;;;;14.90;7.10;;;;;;;6.20;65.62;97412.02;108765;1254;95671;-74
2023/04/27 07:02:19;;;;;;;15.60;6.50;;;;;;;6.34;65.61;97415.41;108913;1252;95838;-74
2023/04/27 07:04:46;;;;;;;15.80;6.40;;;;;;;6.48;65.18;97417.92;108687;1253;100358;-74
2023/04/27 07:07:13;;;;;;;10.00;5.40;;;;;;;6.57;64.82;97414.65;108754;1254;99876;-73
2023/04/27 07:09:40;;;;;;;12.60;6.20;;;;;;;6.60;64.40;97417.13;108783;1253;95656;-73
2023/04/27 07:12:07;;;;;;;13.90;6.30;;;;;;;6.63;64.12;97419.27;108652;1254;95660;-75
2023/04/27 07:14:34;;;;;;;12.00;5.40;;;;;;;6.71;63.69;97420.55;108777;1253;95696;-75
2023/04/27 07:17:01;;;;;;;13.00;5.40;;;;;;;6.83;63.73;97422.80;108783;1253;96050;-73
2023/04/27 07:19:27;;;;;;;10.90;5.40;;;;;;;6.91;62.89;97424.95;108921;1254;96469;-74
2023/04/27 07:21:54;;;;;;;11.70;5.30;;;;;;;6.96;62.57;97424.48;108442;1254;96180;-74
2023/04/27 07:24:21;;;;;;;11.80;5.70;;;;;;;7.03;62.32;97427.78;108797;1254;95972;-75
2023/04/27 07:26:48;;;;;;;11.30;5.50;;;;;;;7.08;61.83;97423.52;108793;1254;95625;-74
2023/04/27 07:29:16;;;;;;;13.50;5.00;;;;;;;7.13;61.70;97423.41;108333;1253;95714;-74
2023/04/27 07:31:42;;;;;;;10.30;4.60;;;;;;;7.20;61.21;97422.95;108824;1254;95664;-75
2023/04/27 07:34:10;;;;;;;12.00;5.70;;;;;;;7.26;61.11;97427.26;108421;1253;95689;-74
2023/04/27 07:36:37;;;;;;;13.00;5.70;;;;;;;7.27;60.94;97430.99;108799;1254;95789;-74
2023/04/27 07:39:05;;;;;;;12.90;5.30;;;;;;;7.28;60.75;97435.04;108803;1256;95973;-74
2023/04/27 07:41:33;;;;;;;12.10;5.40;;;;;;;7.27;60.66;97433.14;108787;1253;95682;-73
2023/04/27 07:44:01;;;;;;;11.60;5.50;;;;;;;7.24;60.48;97439.23;108802;1254;95633;-74
2023/04/27 07:46:29;;;;;;;17.10;6.40;;;;;;;7.22;60.28;97444.66;108415;1253;95720;-73
2023/04/27 07:48:58;;;;;;;13.30;5.60;;;;;;;7.19;60.10;97446.15;108780;1254;95810;-75
2023/04/27 07:51:27;;;;;;;15.60;6.70;;;;;;;7.17;59.96;97444.63;108816;1252;100242;-74
2023/04/27 07:53:54;;;;;;;11.50;4.20;;;;;;;7.17;59.92;97445.38;108774;1253;100120;-73
2023/04/27 07:56:21;;;;;;;5.40;3.10;;;;;;;7.17;59.67;97446.95;108331;1254;96605;-74
2023/04/27 07:58:47;;;;;;;7.50;3.20;;;;;;;7.14;59.54;97452.52;108845;1253;95610;-74
2023/04/27 08:01:14;;;;;;;6.10;3.40;;;;;;;7.07;59.83;97450.55;108748;1254;96002;-75
2023/04/27 08:03:41;;;;;;;8.70;3.90;;;;;;;7.07;59.50;97451.34;108816;1254;95636;-75
2023/04/27 08:06:08;;;;;;;11.20;4.10;;;;;;;7.19;59.52;97452.02;108819;1252;96527;-74
2023/04/27 08:08:35;;;;;;;6.80;3.30;;;;;;;7.34;58.86;97452.92;108810;1252;96464;-75
2023/04/27 08:11:02;;;;;;;11.00;4.20;;;;;;;7.43;58.76;97449.36;108468;1254;95691;-73
2023/04/27 08:13:29;;;;;;;7.20;4.10;;;;;;;7.55;58.55;97448.61;108791;1254;95882;-73
2023/04/27 08:15:57;;;;;;;9.60;4.20;;;;;;;7.65;58.18;97446.55;108797;1253;95569;-74
2023/04/27 08:18:25;;;;;;;8.20;4.20;;;;;;;7.72;58.13;97447.90;108812;1254;95638;-74
2023/04/27 08:20:52;;;;;;;11.90;4.30;;;;;;;7.80;58.03;97448.72;108808;1253;96005;-75
2023/04/27 08:23:19;;;;;;;9.60;4.90;;;;;;;7.86;57.65;97450.63;108819;1254;95952;-74
2023/04/27 08:25:46;;;;;;;9.00;5.30;;;;;;;7.91;57.64;97454.45;108829;1254;95908;-73
2023/04/27 08:28:14;;;;;;;12.30;4.80;;;;;;;7.97;57.56;97462.10;108458;1254;95709;-73
2023/04/27 08:30:43;;;;;;;8.70;4.80;;;;;;;8.03;57.41;97465.10;108355;1258;95742;-73
2023/04/27 08:33:10;;;;;;;9.30;3.70;;;;;;;8.06;57.04;97466.58;108244;1256;95657;-74
2023/04/27 08:35:37;;;;;;;9.40;4.40;;;;;;;7.98;56.95;97477.41;108379;1257;95770;-73
2023/04/27 08:38:04;;;;;;;8.10;4.70;;;;;;;7.84;57.03;97483.27;108389;1257;95616;-76
2023/04/27 08:40:31;;;;;;;9.70;4.40;;;;;;;7.73;57.34;97479.83;108316;1258;95696;-73
2023/04/27 08:43:00;;;;;;;5.90;4.10;;;;;;;7.76;57.63;97477.95;108392;1256;95646;-74
2023/04/27 08:45:28;;;;;;;9.70;4.40;;;;;;;7.80;58.08;97470.35;108398;1259;96558;-74
2023/04/27 08:47:54;;;;;;;7.10;3.90;;;;;;;7.82;58.57;97467.85;108353;1257;96064;-74
2023/04/27 08:50:22;;;;;;;7.20;4.20;;;;;;;7.84;58.77;97467.08;108368;1257;95730;-76
2023/04/27 08:52:51;;;;;;;9.70;4.40;;;;;;;8.08;58.92;97464.02;108350;1260;95719;-74
2023/04/27 08:55:19;;;;;;;7.40;3.80;;;;;;;8.71;58.68;97457.77;108386;1257;95789;-74
2023/04/27 08:58:00;;;;;;;7.40;3.80;;;;;;;9.36;57.87;97456.31;108412;1257;96154;-74
2023/04/27 09:00:27;;;;;;;9.60;5.50;;;;;;;9.98;57.76;97463.82;108219;1257;103652;-73
2023/04/27 09:02:53;;;;;;;9.00;3.60;;;;;;;10.58;56.76;97463.16;108740;1252;95716;-74
2023/04/27 09:05:22;;;;;;;7.70;3.10;;;;;;;10.82;54.74;97464.67;108617;1254;96168;-74
2023/04/27 09:08:00;;;;;;;7.00;4.70;;;;;;;10.70;53.85;97461.66;108366;1252;95745;-74
2023/04/27 09:10:28;;;;;;;8.40;4.40;;;;;;;10.58;53.24;97461.71;108784;1253;96695;-75
2023/04/27 09:12:57;;;;;;;8.90;4.10;;;;;;;10.49;52.94;97457.54;108752;1254;102583;-74
2023/04/27 09:15:24;;;;;;;6.80;4.10;;;;;;;10.44;52.49;97454.64;108800;1254;101304;-74
2023/04/27 09:17:57;;;;;;;5.90;2.80;;;;;;;10.34;52.03;97450.20;108846;1253;95707;-75
2023/04/27 09:20:25;;;;;;;4.90;2.60;;;;;;;10.09;52.37;97447.70;108322;1253;95687;-73
2023/04/27 09:22:54;;;;;;;6.90;2.40;;;;;;;9.84;52.32;97448.61;108589;1253;95875;-74
2023/04/27 09:25:32;;;;;;;5.40;2.70;;;;;;;9.86;52.23;97443.69;108804;1253;103525;-75
2023/04/27 09:28:00;;;;;;;6.30;2.90;;;;;;;10.30;52.41;97437.12;108648;1253;207143;-74
2023/04/27 09:30:28;;;;;;;6.10;2.80;;;;;;;10.88;51.82;97432.03;108770;1254;99992;-74
2023/04/27 09:32:57;;;;;;;11.10;3.70;;;;;;;11.35;51.30;97425.35;108803;1253;95840;-77
2023/04/27 09:35:29;;;;;;;12.10;6.10;;;;;;;11.73;51.02;97422.36;108786;1254;95788;-76
2023/04/27 09:37:56;;;;;;;6.40;3.40;;;;;;;12.20;50.29;97418.81;108799;1254;103358;-74
2023/04/27 09:40:26;;;;;;;6.80;3.90;;;;;;;12.71;49.47;97410.58;108836;1253;101372;-76
2023/04/27 09:42:55;;;;;;;8.80;3.90;;;;;;;13.24;48.81;97409.82;108779;1253;99987;-76
2023/04/27 09:45:23;;;;;;;7.00;3.40;;;;;;;13.62;48.37;97404.98;108786;1254;96031;-76
2023/04/27 09:47:50;;;;;;;7.90;3.60;;;;;;;13.64;47.60;97397.14;108793;1254;96110;-74
2023/04/27 09:50:17;;;;;;;11.50;5.30;;;;;;;13.43;47.70;97401.36;108745;1254;97078;-73
2023/04/27 09:52:45;;;;;;;5.90;3.60;;;;;;;13.03;46.72;97407.02;108763;1253;95704;-75
2023/04/27 09:55:55;;;;;;;7.80;3.40;;;;;;;12.69;46.42;97409.98;108408;1253;95724;-74
2023/04/27 09:58:56;;;;;;;7.00;3.30;;;;;;;12.45;46.45;97415.26;108094;1261;95607;-74
2023/04/27 10:01:44;;;;;;;9.00;3.40;;;;;;;12.20;46.52;97416.49;107992;1264;96647;-74
2023/04/27 10:04:41;;;;;;;7.60;3.00;;;;;;;11.96;46.14;97419.05;107947;1262;103154;-73
2023/04/27 10:07:15;;;;;;;5.30;3.40;;;;;;;11.67;46.09;97416.36;108081;1264;101857;-75
2023/04/27 10:09:43;;;;;;;7.10;3.30;;;;;;;11.43;45.87;97418.08;108098;1260;108548;-75
2023/04/27 10:12:26;;;;;;;8.60;3.60;;;;;;;11.30;46.08;97416.08;108112;1260;95706;-73
2023/04/27 10:14:58;;;;;;;10.20;5.30;;;;;;;11.26;46.23;97415.75;108016;1260;96965;-73
2023/04/27 10:17:31;;;;;;;7.10;4.30;;;;;;;11.27;46.55;97416.04;107985;1260;102598;-73
2023/04/27 10:19:59;;;;;;;;;;;;;;;11.10;46.60;97411.80;108103;1260;101294;-76
2023/04/27 10:22:49;;;;;;;7.90;5.40;;;;;;;10.86;46.82;97407.91;108113;1260;99948;-75
2023/04/27 10:25:22;;;;;;;8.40;4.00;;;;;;;10.75;47.05;97406.66;108004;1261;96096;-76
2023/04/27 10:28:00;;;;;;;10.80;4.10;;;;;;;10.69;46.80;97407.96;108165;1260;96074;-76
2023/04/27 10:30:33;;;;;;;8.10;4.30;;;;;;;10.66;46.48;97404.18;108131;1260;103572;-73
2023/04/27 10:33:06;;;;;;;6.50;3.20;;;;;;;10.73;46.48;97400.14;107919;1260;101218;-75
2023/04/27 10:35:34;;;;;;;8.50;3.30;;;;;;;10.96;45.89;97399.48;108398;1253;100177;-75
2023/04/27 10:38:16;;;;;;;8.50;4.70;;;;;;;11.15;45.83;97398.40;108712;1253;95677;-74
2023/04/27 10:40:44;;;;;;;;;;;;;;;11.23;46.11;97398.60;108784;1252;95563;-73
2023/04/27 10:43:13;;;;;;;9.80;4.40;;;;;;;11.38;45.91;97401.20;108753;1253;95795;-74
2023/04/27 10:45:41;;;;;;;9.70;3.90;;;;;;;11.62;45.61;97402.63;108796;1253;101026;-75
2023/04/27 10:48:08;;;;;;;7.50;4.00;;;;;;;12.02;45.22;97401.78;108800;1254;99447;-74
2023/04/27 10:50:35;;;;;;;6.40;4.20;;;;;;;12.16;43.59;97398.11;108794;1252;95593;-74
2023/04/27 10:53:05;;;;;;;7.50;3.90;;;;;;;12.10;44.09;97392.48;108842;1253;95987;-74
2023/04/27 10:55:33;;;;;;;9.30;3.40;;;;;;;12.35;44.76;97394.20;108796;1252;104022;-77
2023/04/27 10:58:01;;;;;;;7.90;3.60;;;;;;;12.72;43.82;97389.83;108784;1254;100483;-74
2023/04/27 11:00:30;;;;;;;5.20;3.60;;;;;;;12.80;43.13;97388.82;108338;1252;99952;-75
2023/04/27 11:03:10;;;;;;;10.30;5.30;;;;;;;12.73;43.05;97389.78;108743;1253;95615;-75
2023/04/27 11:05:37;;;;;;;9.30;4.80;;;;;;;12.62;43.21;97401.39;108782;1253;95744;-73
2023/04/27 11:08:09;;;;;;;7.20;3.80;;;;;;;12.47;43.22;97411.04;108739;1254;95663;-73
2023/04/27 11:10:42;;;;;;;8.50;4.90;;;;;;;12.19;43.22;97412.99;108794;1253;101029;-73
2023/04/27 11:13:21;;;;;;;6.60;4.10;;;;;;;11.90;43.24;97414.27;108403;1254;98811;-73
2023/04/27 11:15:56;;;;;;;7.70;3.90;;;;;;;11.59;43.57;97417.23;108720;1254;95664;-73
2023/04/27 11:18:26;;;;;;;12.90;5.90;;;;;;;11.32;43.74;97417.35;108602;1254;96436;-74
2023/04/27 11:21:05;;;;;;;10.20;5.60;;;;;;;11.08;43.89;97420.70;108795;1252;103700;-73
2023/04/27 11:23:35;;;;;;;24.20;11.90;;;;;;;10.92;44.07;97426.08;108800;1253;101132;-76